sensor_id;sensor_type;location;lat;lon;timestamp;temperature;humidity
46754;DHT22;32500;50.620;3.400;2023-09-07T00:04:50;21.10;87.70
46754;DHT22;32500;50.620;3.400;2023-09-07T00:10:20;21.10;88.10
46754;DHT22;32500;50.620;3.400;2023-09-07T00:13:06;21.00;88.40
46754;DHT22;32500;50.620;3.400;2023-09-07T00:15:39;21.00;88.50
46754;DHT22;32500;50.620;3.400;2023-09-07T00:21:43;21.00;88.60
46754;DHT22;32500;50.620;3.400;2023-09-07T00:24:57;20.90;88.70
46754;DHT22;32500;50.620;3.400;2023-09-07T00:27:48;20.90;88.90
46754;DHT22;32500;50.620;3.400;2023-09-07T00:30:34;20.90;89.20
46754;DHT22;32500;50.620;3.400;2023-09-07T00:33:35;20.90;89.20
46754;DHT22;32500;50.620;3.400;2023-09-07T00:36:45;20.90;89.30
46754;DHT22;32500;50.620;3.400;2023-09-07T00:42:54;20.90;89.70
46754;DHT22;32500;50.620;3.400;2023-09-07T00:45:50;20.80;89.60
46754;DHT22;32500;50.620;3.400;2023-09-07T00:55:04;20.80;90.00
46754;DHT22;32500;50.620;3.400;2023-09-07T00:57:49;20.70;90.00
46754;DHT22;32500;50.620;3.400;2023-09-07T01:00:15;20.70;90.10
46754;DHT22;32500;50.620;3.400;2023-09-07T01:02:44;20.70;90.10
46754;DHT22;32500;50.620;3.400;2023-09-07T01:08:57;20.70;90.30
46754;DHT22;32500;50.620;3.400;2023-09-07T01:12:01;20.60;90.20
46754;DHT22;32500;50.620;3.400;2023-09-07T01:15:11;20.60;90.40
46754;DHT22;32500;50.620;3.400;2023-09-07T01:17:49;20.60;90.20
46754;DHT22;32500;50.620;3.400;2023-09-07T01:21:02;20.60;90.20
46754;DHT22;32500;50.620;3.400;2023-09-07T01:23:47;20.60;90.30
46754;DHT22;32500;50.620;3.400;2023-09-07T01:26:24;20.60;90.30
46754;DHT22;32500;50.620;3.400;2023-09-07T01:29:43;20.60;90.40
46754;DHT22;32500;50.620;3.400;2023-09-07T01:32:34;20.50;90.50
46754;DHT22;32500;50.620;3.400;2023-09-07T01:35:23;20.50;90.40
46754;DHT22;32500;50.620;3.400;2023-09-07T01:38:22;20.50;90.60
46754;DHT22;32500;50.620;3.400;2023-09-07T01:41:03;20.50;90.60
46754;DHT22;32500;50.620;3.400;2023-09-07T01:50:53;20.40;90.70
46754;DHT22;32500;50.620;3.400;2023-09-07T01:53:47;20.40;90.90
46754;DHT22;32500;50.620;3.400;2023-09-07T02:06:22;20.40;91.00
46754;DHT22;32500;50.620;3.400;2023-09-07T02:12:12;20.30;91.10
46754;DHT22;32500;50.620;3.400;2023-09-07T02:14:41;20.20;91.10
46754;DHT22;32500;50.620;3.400;2023-09-07T02:17:13;20.20;91.10
46754;DHT22;32500;50.620;3.400;2023-09-07T02:19:52;20.20;91.20
46754;DHT22;32500;50.620;3.400;2023-09-07T02:25:59;20.20;91.20
46754;DHT22;32500;50.620;3.400;2023-09-07T02:28:45;20.10;91.30
46754;DHT22;32500;50.620;3.400;2023-09-07T02:31:58;20.10;91.20
46754;DHT22;32500;50.620;3.400;2023-09-07T02:34:44;20.10;91.30
46754;DHT22;32500;50.620;3.400;2023-09-07T02:40:27;20.10;91.30
46754;DHT22;32500;50.620;3.400;2023-09-07T02:46:47;20.10;91.50
46754;DHT22;32500;50.620;3.400;2023-09-07T02:49:45;20.00;91.40
46754;DHT22;32500;50.620;3.400;2023-09-07T02:55:16;20.00;91.60
46754;DHT22;32500;50.620;3.400;2023-09-07T02:57:52;20.00;91.60
46754;DHT22;32500;50.620;3.400;2023-09-07T03:06:51;19.90;91.70
46754;DHT22;32500;50.620;3.400;2023-09-07T03:09:43;19.90;91.70
46754;DHT22;32500;50.620;3.400;2023-09-07T03:12:14;19.90;91.90
46754;DHT22;32500;50.620;3.400;2023-09-07T03:18:17;19.90;91.80
46754;DHT22;32500;50.620;3.400;2023-09-07T03:24:23;19.80;91.90
46754;DHT22;32500;50.620;3.400;2023-09-07T03:27:18;19.80;91.90
46754;DHT22;32500;50.620;3.400;2023-09-07T03:30:28;19.80;91.80
46754;DHT22;32500;50.620;3.400;2023-09-07T03:33:27;19.80;92.00
46754;DHT22;32500;50.620;3.400;2023-09-07T03:35:58;19.70;92.00
46754;DHT22;32500;50.620;3.400;2023-09-07T03:38:27;19.70;92.00
46754;DHT22;32500;50.620;3.400;2023-09-07T03:41:17;19.70;91.90
46754;DHT22;32500;50.620;3.400;2023-09-07T03:43:54;19.70;91.90
46754;DHT22;32500;50.620;3.400;2023-09-07T03:46:44;19.60;92.10
46754;DHT22;32500;50.620;3.400;2023-09-07T03:49:16;19.70;92.10
46754;DHT22;32500;50.620;3.400;2023-09-07T03:51:42;19.60;92.00
46754;DHT22;32500;50.620;3.400;2023-09-07T03:54:07;19.60;92.10
46754;DHT22;32500;50.620;3.400;2023-09-07T03:56:41;19.60;92.20
46754;DHT22;32500;50.620;3.400;2023-09-07T03:59:30;19.60;92.10
46754;DHT22;32500;50.620;3.400;2023-09-07T04:09:40;19.60;92.10
46754;DHT22;32500;50.620;3.400;2023-09-07T04:18:31;19.50;92.60
46754;DHT22;32500;50.620;3.400;2023-09-07T04:21:22;19.50;92.40
46754;DHT22;32500;50.620;3.400;2023-09-07T04:24:16;19.50;92.70
46754;DHT22;32500;50.620;3.400;2023-09-07T04:30:27;19.50;92.30
46754;DHT22;32500;50.620;3.400;2023-09-07T04:32:57;19.40;92.40
46754;DHT22;32500;50.620;3.400;2023-09-07T04:35:33;19.40;92.50
46754;DHT22;32500;50.620;3.400;2023-09-07T04:37:58;19.40;92.60
46754;DHT22;32500;50.620;3.400;2023-09-07T04:40:25;19.40;92.60
46754;DHT22;32500;50.620;3.400;2023-09-07T04:42:51;19.40;95.20
46754;DHT22;32500;50.620;3.400;2023-09-07T04:45:17;19.50;92.90
46754;DHT22;32500;50.620;3.400;2023-09-07T04:47:43;19.40;92.80
46754;DHT22;32500;50.620;3.400;2023-09-07T04:50:09;19.40;92.60
46754;DHT22;32500;50.620;3.400;2023-09-07T04:52:35;19.30;92.80
46754;DHT22;32500;50.620;3.400;2023-09-07T04:55:01;19.40;92.80
46754;DHT22;32500;50.620;3.400;2023-09-07T04:57:27;19.30;93.50
46754;DHT22;32500;50.620;3.400;2023-09-07T04:59:53;19.30;92.80
46754;DHT22;32500;50.620;3.400;2023-09-07T05:02:18;19.30;92.80
46754;DHT22;32500;50.620;3.400;2023-09-07T05:04:44;19.30;92.70
46754;DHT22;32500;50.620;3.400;2023-09-07T05:07:10;19.30;93.50
46754;DHT22;32500;50.620;3.400;2023-09-07T05:09:36;19.30;93.30
46754;DHT22;32500;50.620;3.400;2023-09-07T05:12:01;19.30;93.40
46754;DHT22;32500;50.620;3.400;2023-09-07T05:14:28;19.20;93.10
46754;DHT22;32500;50.620;3.400;2023-09-07T05:16:55;19.20;93.20
46754;DHT22;32500;50.620;3.400;2023-09-07T05:19:22;19.20;93.00
46754;DHT22;32500;50.620;3.400;2023-09-07T05:21:47;19.20;93.10
46754;DHT22;32500;50.620;3.400;2023-09-07T05:24:13;19.20;93.20
46754;DHT22;32500;50.620;3.400;2023-09-07T05:26:40;19.20;93.30
46754;DHT22;32500;50.620;3.400;2023-09-07T05:29:06;19.20;93.20
46754;DHT22;32500;50.620;3.400;2023-09-07T05:31:32;19.10;93.20
46754;DHT22;32500;50.620;3.400;2023-09-07T05:33:57;19.10;93.10
46754;DHT22;32500;50.620;3.400;2023-09-07T05:36:23;19.20;93.20
46754;DHT22;32500;50.620;3.400;2023-09-07T05:38:49;19.20;93.90
46754;DHT22;32500;50.620;3.400;2023-09-07T05:41:14;19.20;93.50
46754;DHT22;32500;50.620;3.400;2023-09-07T05:43:40;19.20;93.40
46754;DHT22;32500;50.620;3.400;2023-09-07T05:46:05;19.10;93.10
46754;DHT22;32500;50.620;3.400;2023-09-07T05:48:31;19.10;93.70
46754;DHT22;32500;50.620;3.400;2023-09-07T05:50:57;19.10;94.20
46754;DHT22;32500;50.620;3.400;2023-09-07T05:53:22;19.10;91.70
46754;DHT22;32500;50.620;3.400;2023-09-07T05:55:50;18.70;91.70
46754;DHT22;32500;50.620;3.400;2023-09-07T05:58:15;18.30;92.90
46754;DHT22;32500;50.620;3.400;2023-09-07T06:00:41;18.00;93.80
46754;DHT22;32500;50.620;3.400;2023-09-07T06:03:10;17.80;94.50
46754;DHT22;32500;50.620;3.400;2023-09-07T06:05:36;17.80;95.10
46754;DHT22;32500;50.620;3.400;2023-09-07T06:08:04;17.80;95.00
46754;DHT22;32500;50.620;3.400;2023-09-07T06:10:30;17.80;95.20
46754;DHT22;32500;50.620;3.400;2023-09-07T06:12:56;17.80;95.40
46754;DHT22;32500;50.620;3.400;2023-09-07T06:15:22;17.80;95.70
46754;DHT22;32500;50.620;3.400;2023-09-07T06:17:47;17.90;95.70
46754;DHT22;32500;50.620;3.400;2023-09-07T06:20:13;17.90;95.80
46754;DHT22;32500;50.620;3.400;2023-09-07T06:22:39;17.80;96.00
46754;DHT22;32500;50.620;3.400;2023-09-07T06:25:05;17.80;96.40
46754;DHT22;32500;50.620;3.400;2023-09-07T06:27:31;17.90;96.40
46754;DHT22;32500;50.620;3.400;2023-09-07T06:29:57;18.00;96.10
46754;DHT22;32500;50.620;3.400;2023-09-07T06:32:23;18.00;95.80
46754;DHT22;32500;50.620;3.400;2023-09-07T06:34:52;18.10;95.60
46754;DHT22;32500;50.620;3.400;2023-09-07T06:37:17;18.10;95.70
46754;DHT22;32500;50.620;3.400;2023-09-07T06:39:43;18.20;96.00
46754;DHT22;32500;50.620;3.400;2023-09-07T06:42:09;18.40;95.60
46754;DHT22;32500;50.620;3.400;2023-09-07T06:44:37;18.50;95.40
46754;DHT22;32500;50.620;3.400;2023-09-07T06:47:03;18.60;95.40
46754;DHT22;32500;50.620;3.400;2023-09-07T06:49:29;18.70;95.20
46754;DHT22;32500;50.620;3.400;2023-09-07T06:51:56;18.70;95.30
46754;DHT22;32500;50.620;3.400;2023-09-07T06:54:22;18.80;94.90
46754;DHT22;32500;50.620;3.400;2023-09-07T06:56:47;18.90;94.90
46754;DHT22;32500;50.620;3.400;2023-09-07T06:59:14;19.00;94.70
46754;DHT22;32500;50.620;3.400;2023-09-07T07:01:39;19.20;94.40
46754;DHT22;32500;50.620;3.400;2023-09-07T07:04:05;19.30;93.70
46754;DHT22;32500;50.620;3.400;2023-09-07T07:06:31;19.40;93.60
46754;DHT22;32500;50.620;3.400;2023-09-07T07:08:57;19.40;93.30
46754;DHT22;32500;50.620;3.400;2023-09-07T07:11:23;19.40;93.80
46754;DHT22;32500;50.620;3.400;2023-09-07T07:13:48;19.50;93.60
46754;DHT22;32500;50.620;3.400;2023-09-07T07:16:16;19.60;93.00
46754;DHT22;32500;50.620;3.400;2023-09-07T07:18:42;19.70;92.60
46754;DHT22;32500;50.620;3.400;2023-09-07T07:21:08;19.90;91.80
46754;DHT22;32500;50.620;3.400;2023-09-07T07:23:34;20.00;91.30
46754;DHT22;32500;50.620;3.400;2023-09-07T07:26:00;20.10;91.10
46754;DHT22;32500;50.620;3.400;2023-09-07T07:28:26;20.20;90.90
46754;DHT22;32500;50.620;3.400;2023-09-07T07:30:51;20.40;89.80
46754;DHT22;32500;50.620;3.400;2023-09-07T07:33:19;20.40;89.60
46754;DHT22;32500;50.620;3.400;2023-09-07T07:35:45;20.50;88.70
46754;DHT22;32500;50.620;3.400;2023-09-07T07:38:12;20.60;87.10
46754;DHT22;32500;50.620;3.400;2023-09-07T07:40:39;20.80;86.50
46754;DHT22;32500;50.620;3.400;2023-09-07T07:43:04;20.90;85.20
46754;DHT22;32500;50.620;3.400;2023-09-07T07:45:31;20.90;85.10
46754;DHT22;32500;50.620;3.400;2023-09-07T07:48:02;21.00;84.60
46754;DHT22;32500;50.620;3.400;2023-09-07T07:50:27;21.00;85.70
46754;DHT22;32500;50.620;3.400;2023-09-07T07:52:53;21.00;85.90
46754;DHT22;32500;50.620;3.400;2023-09-07T07:55:19;21.10;85.00
46754;DHT22;32500;50.620;3.400;2023-09-07T07:57:44;21.20;85.30
46754;DHT22;32500;50.620;3.400;2023-09-07T08:00:10;21.10;85.40
46754;DHT22;32500;50.620;3.400;2023-09-07T08:02:36;21.20;84.90
46754;DHT22;32500;50.620;3.400;2023-09-07T08:05:01;21.30;86.00
46754;DHT22;32500;50.620;3.400;2023-09-07T08:07:27;21.20;85.60
46754;DHT22;32500;50.620;3.400;2023-09-07T08:09:53;21.30;86.00
46754;DHT22;32500;50.620;3.400;2023-09-07T08:12:18;21.40;85.90
46754;DHT22;32500;50.620;3.400;2023-09-07T08:14:44;21.40;85.40
46754;DHT22;32500;50.620;3.400;2023-09-07T08:17:10;21.40;84.50
46754;DHT22;32500;50.620;3.400;2023-09-07T08:19:35;21.50;86.20
46754;DHT22;32500;50.620;3.400;2023-09-07T08:22:01;21.60;85.60
46754;DHT22;32500;50.620;3.400;2023-09-07T08:24:30;21.60;85.30
46754;DHT22;32500;50.620;3.400;2023-09-07T08:26:55;21.70;85.80
46754;DHT22;32500;50.620;3.400;2023-09-07T08:29:23;21.70;84.50
46754;DHT22;32500;50.620;3.400;2023-09-07T08:31:52;21.80;85.00
46754;DHT22;32500;50.620;3.400;2023-09-07T08:34:18;21.80;84.40
46754;DHT22;32500;50.620;3.400;2023-09-07T08:36:46;21.90;84.30
46754;DHT22;32500;50.620;3.400;2023-09-07T08:39:12;21.80;85.10
46754;DHT22;32500;50.620;3.400;2023-09-07T08:41:41;22.00;85.20
46754;DHT22;32500;50.620;3.400;2023-09-07T08:44:28;22.00;83.20
46754;DHT22;32500;50.620;3.400;2023-09-07T08:46:55;22.00;83.40
46754;DHT22;32500;50.620;3.400;2023-09-07T08:49:20;22.10;84.30
46754;DHT22;32500;50.620;3.400;2023-09-07T08:51:48;22.10;82.50
46754;DHT22;32500;50.620;3.400;2023-09-07T08:54:15;22.20;81.80
46754;DHT22;32500;50.620;3.400;2023-09-07T08:56:41;22.20;80.00
46754;DHT22;32500;50.620;3.400;2023-09-07T08:59:06;22.30;82.30
46754;DHT22;32500;50.620;3.400;2023-09-07T09:01:32;22.40;81.80
46754;DHT22;32500;50.620;3.400;2023-09-07T09:03:58;22.50;81.70
46754;DHT22;32500;50.620;3.400;2023-09-07T09:06:24;22.50;81.90
46754;DHT22;32500;50.620;3.400;2023-09-07T09:08:56;22.60;81.20
46754;DHT22;32500;50.620;3.400;2023-09-07T09:11:23;22.60;80.10
46754;DHT22;32500;50.620;3.400;2023-09-07T09:13:50;22.70;80.20
46754;DHT22;32500;50.620;3.400;2023-09-07T09:16:16;22.70;80.10
46754;DHT22;32500;50.620;3.400;2023-09-07T09:21:21;22.90;79.80
46754;DHT22;32500;50.620;3.400;2023-09-07T09:23:49;23.00;79.90
46754;DHT22;32500;50.620;3.400;2023-09-07T09:26:18;23.00;79.50
46754;DHT22;32500;50.620;3.400;2023-09-07T09:28:44;23.10;78.00
46754;DHT22;32500;50.620;3.400;2023-09-07T09:31:13;23.10;79.00
46754;DHT22;32500;50.620;3.400;2023-09-07T09:33:42;23.20;78.10
46754;DHT22;32500;50.620;3.400;2023-09-07T09:36:12;23.30;78.60
46754;DHT22;32500;50.620;3.400;2023-09-07T09:38:38;23.30;78.00
46754;DHT22;32500;50.620;3.400;2023-09-07T09:41:04;23.40;79.00
46754;DHT22;32500;50.620;3.400;2023-09-07T09:43:30;23.40;78.40
46754;DHT22;32500;50.620;3.400;2023-09-07T09:45:56;23.40;78.20
46754;DHT22;32500;50.620;3.400;2023-09-07T09:48:22;23.40;76.80
46754;DHT22;32500;50.620;3.400;2023-09-07T09:50:49;23.40;77.70
46754;DHT22;32500;50.620;3.400;2023-09-07T09:53:19;23.50;77.60
46754;DHT22;32500;50.620;3.400;2023-09-07T09:55:50;23.60;77.40
46754;DHT22;32500;50.620;3.400;2023-09-07T09:58:17;23.60;77.80
46754;DHT22;32500;50.620;3.400;2023-09-07T10:00:45;23.70;77.80
46754;DHT22;32500;50.620;3.400;2023-09-07T10:03:26;23.70;77.40
46754;DHT22;32500;50.620;3.400;2023-09-07T10:05:53;23.70;77.40
46754;DHT22;32500;50.620;3.400;2023-09-07T10:08:20;23.80;77.40
46754;DHT22;32500;50.620;3.400;2023-09-07T10:10:49;23.80;77.50
46754;DHT22;32500;50.620;3.400;2023-09-07T10:13:15;23.80;77.00
46754;DHT22;32500;50.620;3.400;2023-09-07T10:15:42;23.80;76.80
46754;DHT22;32500;50.620;3.400;2023-09-07T10:18:13;23.90;77.00
46754;DHT22;32500;50.620;3.400;2023-09-07T10:20:55;23.90;76.60
46754;DHT22;32500;50.620;3.400;2023-09-07T10:23:22;23.90;77.10
46754;DHT22;32500;50.620;3.400;2023-09-07T10:25:52;24.00;76.90
46754;DHT22;32500;50.620;3.400;2023-09-07T10:28:22;24.00;75.60
46754;DHT22;32500;50.620;3.400;2023-09-07T10:31:02;24.10;77.10
46754;DHT22;32500;50.620;3.400;2023-09-07T10:33:32;24.10;76.50
46754;DHT22;32500;50.620;3.400;2023-09-07T10:35:59;24.20;77.10
46754;DHT22;32500;50.620;3.400;2023-09-07T10:38:25;24.20;76.90
46754;DHT22;32500;50.620;3.400;2023-09-07T10:40:57;24.10;78.10
46754;DHT22;32500;50.620;3.400;2023-09-07T10:43:30;24.10;78.60
46754;DHT22;32500;50.620;3.400;2023-09-07T10:45:57;24.10;79.10
46754;DHT22;32500;50.620;3.400;2023-09-07T10:48:24;24.10;79.00
46754;DHT22;32500;50.620;3.400;2023-09-07T10:50:51;24.10;79.80
46754;DHT22;32500;50.620;3.400;2023-09-07T10:53:31;24.10;79.40
46754;DHT22;32500;50.620;3.400;2023-09-07T10:55:59;24.10;78.40
46754;DHT22;32500;50.620;3.400;2023-09-07T10:58:30;24.20;79.60
46754;DHT22;32500;50.620;3.400;2023-09-07T11:00:56;24.30;80.10
46754;DHT22;32500;50.620;3.400;2023-09-07T11:03:24;24.30;80.90
46754;DHT22;32500;50.620;3.400;2023-09-07T11:05:51;24.30;79.90
46754;DHT22;32500;50.620;3.400;2023-09-07T11:08:18;24.50;77.20
46754;DHT22;32500;50.620;3.400;2023-09-07T11:10:44;24.60;76.30
46754;DHT22;32500;50.620;3.400;2023-09-07T11:13:10;24.60;75.00
46754;DHT22;32500;50.620;3.400;2023-09-07T11:15:35;24.60;73.60
46754;DHT22;32500;50.620;3.400;2023-09-07T11:18:08;24.70;72.30
46754;DHT22;32500;50.620;3.400;2023-09-07T11:20:37;24.70;71.00
46754;DHT22;32500;50.620;3.400;2023-09-07T11:23:06;24.60;70.30
46754;DHT22;32500;50.620;3.400;2023-09-07T11:25:39;24.70;68.70
46754;DHT22;32500;50.620;3.400;2023-09-07T11:28:05;24.70;67.40
46754;DHT22;32500;50.620;3.400;2023-09-07T11:30:35;24.70;66.40
46754;DHT22;32500;50.620;3.400;2023-09-07T11:33:10;24.70;65.20
46754;DHT22;32500;50.620;3.400;2023-09-07T11:35:35;24.70;64.40
46754;DHT22;32500;50.620;3.400;2023-09-07T11:38:03;24.70;63.10
46754;DHT22;32500;50.620;3.400;2023-09-07T11:40:30;24.60;62.20
46754;DHT22;32500;50.620;3.400;2023-09-07T11:42:56;24.60;62.00
46754;DHT22;32500;50.620;3.400;2023-09-07T11:45:22;24.60;61.80
46754;DHT22;32500;50.620;3.400;2023-09-07T11:47:48;24.60;60.90
46754;DHT22;32500;50.620;3.400;2023-09-07T11:50:15;24.60;60.60
46754;DHT22;32500;50.620;3.400;2023-09-07T11:52:41;24.60;59.50
46754;DHT22;32500;50.620;3.400;2023-09-07T11:55:07;24.50;58.80
46754;DHT22;32500;50.620;3.400;2023-09-07T11:57:33;24.60;58.50
46754;DHT22;32500;50.620;3.400;2023-09-07T11:59:59;24.50;58.20
46754;DHT22;32500;50.620;3.400;2023-09-07T12:02:25;24.60;57.30
46754;DHT22;32500;50.620;3.400;2023-09-07T12:04:52;24.60;56.80
46754;DHT22;32500;50.620;3.400;2023-09-07T12:07:17;24.50;56.40
46754;DHT22;32500;50.620;3.400;2023-09-07T12:09:43;24.60;56.40
46754;DHT22;32500;50.620;3.400;2023-09-07T12:12:08;24.60;56.70
46754;DHT22;32500;50.620;3.400;2023-09-07T12:14:36;24.70;56.90
46754;DHT22;32500;50.620;3.400;2023-09-07T12:17:01;24.70;56.70
46754;DHT22;32500;50.620;3.400;2023-09-07T12:19:27;24.70;56.50
46754;DHT22;32500;50.620;3.400;2023-09-07T12:21:53;24.70;56.60
46754;DHT22;32500;50.620;3.400;2023-09-07T12:24:18;24.70;56.60
46754;DHT22;32500;50.620;3.400;2023-09-07T12:26:44;24.70;56.60
46754;DHT22;32500;50.620;3.400;2023-09-07T12:29:10;24.70;56.50
46754;DHT22;32500;50.620;3.400;2023-09-07T12:31:35;24.70;56.90
46754;DHT22;32500;50.620;3.400;2023-09-07T12:34:01;24.80;57.10
46754;DHT22;32500;50.620;3.400;2023-09-07T12:36:27;24.80;57.40
46754;DHT22;32500;50.620;3.400;2023-09-07T12:38:55;24.90;57.90
46754;DHT22;32500;50.620;3.400;2023-09-07T12:41:29;24.90;58.20
46754;DHT22;32500;50.620;3.400;2023-09-07T12:43:56;24.90;58.00
46754;DHT22;32500;50.620;3.400;2023-09-07T12:46:21;24.90;57.90
46754;DHT22;32500;50.620;3.400;2023-09-07T12:48:47;24.90;57.70
46754;DHT22;32500;50.620;3.400;2023-09-07T12:51:13;24.90;57.50
46754;DHT22;32500;50.620;3.400;2023-09-07T12:53:38;24.90;57.30
46754;DHT22;32500;50.620;3.400;2023-09-07T12:56:05;24.90;57.00
46754;DHT22;32500;50.620;3.400;2023-09-07T12:58:31;24.90;56.90
46754;DHT22;32500;50.620;3.400;2023-09-07T13:00:56;24.90;56.80
46754;DHT22;32500;50.620;3.400;2023-09-07T13:03:22;24.90;56.80
46754;DHT22;32500;50.620;3.400;2023-09-07T13:05:48;24.90;56.50
46754;DHT22;32500;50.620;3.400;2023-09-07T13:08:14;24.90;56.50
46754;DHT22;32500;50.620;3.400;2023-09-07T13:10:40;25.00;56.40
46754;DHT22;32500;50.620;3.400;2023-09-07T13:13:06;25.00;56.40
46754;DHT22;32500;50.620;3.400;2023-09-07T13:15:31;25.00;56.40
46754;DHT22;32500;50.620;3.400;2023-09-07T13:17:57;25.00;56.40
46754;DHT22;32500;50.620;3.400;2023-09-07T13:20:23;25.00;56.40
46754;DHT22;32500;50.620;3.400;2023-09-07T13:22:48;25.00;56.10
46754;DHT22;32500;50.620;3.400;2023-09-07T13:25:14;25.00;56.10
46754;DHT22;32500;50.620;3.400;2023-09-07T13:27:40;25.00;56.10
46754;DHT22;32500;50.620;3.400;2023-09-07T13:30:06;25.00;56.10
46754;DHT22;32500;50.620;3.400;2023-09-07T13:32:34;25.10;56.20
46754;DHT22;32500;50.620;3.400;2023-09-07T13:35:00;25.10;56.20
46754;DHT22;32500;50.620;3.400;2023-09-07T13:37:25;25.10;56.40
46754;DHT22;32500;50.620;3.400;2023-09-07T13:39:51;25.10;56.00
46754;DHT22;32500;50.620;3.400;2023-09-07T13:42:17;25.10;55.90
46754;DHT22;32500;50.620;3.400;2023-09-07T13:44:42;25.10;55.70
46754;DHT22;32500;50.620;3.400;2023-09-07T13:47:11;25.10;55.60
46754;DHT22;32500;50.620;3.400;2023-09-07T13:49:36;25.10;55.60
46754;DHT22;32500;50.620;3.400;2023-09-07T13:52:02;25.10;55.60
46754;DHT22;32500;50.620;3.400;2023-09-07T13:54:28;25.10;55.70
46754;DHT22;32500;50.620;3.400;2023-09-07T13:56:54;25.10;56.20
46754;DHT22;32500;50.620;3.400;2023-09-07T13:59:19;25.20;56.30
46754;DHT22;32500;50.620;3.400;2023-09-07T14:01:45;25.20;56.00
46754;DHT22;32500;50.620;3.400;2023-09-07T14:04:11;25.10;55.60
46754;DHT22;32500;50.620;3.400;2023-09-07T14:06:36;25.10;55.40
46754;DHT22;32500;50.620;3.400;2023-09-07T14:09:02;25.10;55.40
46754;DHT22;32500;50.620;3.400;2023-09-07T14:11:28;25.10;55.10
46754;DHT22;32500;50.620;3.400;2023-09-07T14:13:54;25.10;54.90
46754;DHT22;32500;50.620;3.400;2023-09-07T14:16:20;25.10;54.90
46754;DHT22;32500;50.620;3.400;2023-09-07T14:21:15;25.20;54.70
46754;DHT22;32500;50.620;3.400;2023-09-07T14:23:40;25.10;54.40
46754;DHT22;32500;50.620;3.400;2023-09-07T14:26:08;25.20;54.70
46754;DHT22;32500;50.620;3.400;2023-09-07T14:28:34;25.20;54.60
46754;DHT22;32500;50.620;3.400;2023-09-07T14:31:00;25.20;54.60
46754;DHT22;32500;50.620;3.400;2023-09-07T14:33:29;25.20;54.50
46754;DHT22;32500;50.620;3.400;2023-09-07T14:35:55;25.20;54.50
46754;DHT22;32500;50.620;3.400;2023-09-07T14:38:21;25.20;54.50
46754;DHT22;32500;50.620;3.400;2023-09-07T14:40:48;25.20;54.50
46754;DHT22;32500;50.620;3.400;2023-09-07T14:43:15;25.20;54.50
46754;DHT22;32500;50.620;3.400;2023-09-07T14:45:43;25.20;54.50
46754;DHT22;32500;50.620;3.400;2023-09-07T14:48:08;25.20;54.40
46754;DHT22;32500;50.620;3.400;2023-09-07T14:50:34;25.20;54.30
46754;DHT22;32500;50.620;3.400;2023-09-07T14:52:59;25.20;54.20
46754;DHT22;32500;50.620;3.400;2023-09-07T14:55:25;25.20;54.20
46754;DHT22;32500;50.620;3.400;2023-09-07T14:57:51;25.20;54.20
46754;DHT22;32500;50.620;3.400;2023-09-07T15:00:17;25.20;54.20
46754;DHT22;32500;50.620;3.400;2023-09-07T15:02:42;25.20;54.10
46754;DHT22;32500;50.620;3.400;2023-09-07T15:05:08;25.20;54.00
46754;DHT22;32500;50.620;3.400;2023-09-07T15:07:34;25.20;54.00
46754;DHT22;32500;50.620;3.400;2023-09-07T15:09:59;25.20;54.20
46754;DHT22;32500;50.620;3.400;2023-09-07T15:12:25;25.20;54.50
46754;DHT22;32500;50.620;3.400;2023-09-07T15:14:52;25.10;53.90
46754;DHT22;32500;50.620;3.400;2023-09-07T15:17:17;25.10;53.90
46754;DHT22;32500;50.620;3.400;2023-09-07T15:19:43;25.20;54.50
46754;DHT22;32500;50.620;3.400;2023-09-07T15:22:09;25.20;54.50
46754;DHT22;32500;50.620;3.400;2023-09-07T15:24:34;25.30;54.20
46754;DHT22;32500;50.620;3.400;2023-09-07T15:27:10;25.30;54.30
46754;DHT22;32500;50.620;3.400;2023-09-07T15:29:38;25.20;54.30
46754;DHT22;32500;50.620;3.400;2023-09-07T15:32:06;25.30;54.10
46754;DHT22;32500;50.620;3.400;2023-09-07T15:34:32;25.20;53.90
46754;DHT22;32500;50.620;3.400;2023-09-07T15:37:00;25.20;53.80
46754;DHT22;32500;50.620;3.400;2023-09-07T15:39:25;25.20;54.00
46754;DHT22;32500;50.620;3.400;2023-09-07T15:41:51;25.20;54.10
46754;DHT22;32500;50.620;3.400;2023-09-07T15:44:18;25.30;54.50
46754;DHT22;32500;50.620;3.400;2023-09-07T15:46:44;25.30;54.60
46754;DHT22;32500;50.620;3.400;2023-09-07T15:49:09;25.30;55.60
46754;DHT22;32500;50.620;3.400;2023-09-07T15:51:35;25.40;55.30
46754;DHT22;32500;50.620;3.400;2023-09-07T15:54:00;25.40;55.70
46754;DHT22;32500;50.620;3.400;2023-09-07T15:56:26;25.40;55.50
46754;DHT22;32500;50.620;3.400;2023-09-07T15:58:52;25.50;55.30
46754;DHT22;32500;50.620;3.400;2023-09-07T16:01:19;25.50;55.60
46754;DHT22;32500;50.620;3.400;2023-09-07T16:03:45;25.50;56.30
46754;DHT22;32500;50.620;3.400;2023-09-07T16:06:12;25.50;56.00
46754;DHT22;32500;50.620;3.400;2023-09-07T16:08:37;25.50;56.30
46754;DHT22;32500;50.620;3.400;2023-09-07T16:11:03;25.50;57.00
46754;DHT22;32500;50.620;3.400;2023-09-07T16:13:29;25.50;57.20
46754;DHT22;32500;50.620;3.400;2023-09-07T16:15:55;25.60;57.50
46754;DHT22;32500;50.620;3.400;2023-09-07T16:18:21;25.60;57.10
46754;DHT22;32500;50.620;3.400;2023-09-07T16:20:47;25.60;57.10
46754;DHT22;32500;50.620;3.400;2023-09-07T16:23:16;25.60;57.40
46754;DHT22;32500;50.620;3.400;2023-09-07T16:25:42;25.60;56.80
46754;DHT22;32500;50.620;3.400;2023-09-07T16:28:08;25.60;57.10
46754;DHT22;32500;50.620;3.400;2023-09-07T16:30:34;25.60;57.60
46754;DHT22;32500;50.620;3.400;2023-09-07T16:33:00;25.60;57.60
46754;DHT22;32500;50.620;3.400;2023-09-07T16:35:25;25.60;57.40
46754;DHT22;32500;50.620;3.400;2023-09-07T16:37:51;25.60;57.50
46754;DHT22;32500;50.620;3.400;2023-09-07T16:40:17;25.60;58.20
46754;DHT22;32500;50.620;3.400;2023-09-07T16:42:43;25.60;57.80
46754;DHT22;32500;50.620;3.400;2023-09-07T16:45:09;25.60;57.70
46754;DHT22;32500;50.620;3.400;2023-09-07T16:47:35;25.60;58.20
46754;DHT22;32500;50.620;3.400;2023-09-07T16:50:01;25.60;58.20
46754;DHT22;32500;50.620;3.400;2023-09-07T16:52:28;25.60;59.00
46754;DHT22;32500;50.620;3.400;2023-09-07T16:54:57;25.60;58.30
46754;DHT22;32500;50.620;3.400;2023-09-07T16:57:23;25.60;57.60
46754;DHT22;32500;50.620;3.400;2023-09-07T16:59:52;25.60;58.50
46754;DHT22;32500;50.620;3.400;2023-09-07T17:02:19;25.50;58.30
46754;DHT22;32500;50.620;3.400;2023-09-07T17:04:44;25.50;58.40
46754;DHT22;32500;50.620;3.400;2023-09-07T17:07:10;25.40;57.90
46754;DHT22;32500;50.620;3.400;2023-09-07T17:09:36;25.40;58.10
46754;DHT22;32500;50.620;3.400;2023-09-07T17:12:03;25.40;58.40
46754;DHT22;32500;50.620;3.400;2023-09-07T17:14:31;25.30;58.60
46754;DHT22;32500;50.620;3.400;2023-09-07T17:16:57;25.30;58.50
46754;DHT22;32500;50.620;3.400;2023-09-07T17:19:24;25.30;58.70